Time;durP1;ratioP1;P1;durP2;ratioP2;P2;SDS_P1;SDS_P2;PMS_P1;PMS_P2;Temp;Humidity;BMP_temperature;BMP_pressure;BME280_temperature;BME280_humidity;BME280_pressure;Samples;Min_cycle;Max_cycle;Signal;HPM_P1;HPM_P2
2022/05/17 00:01:22;;;;;;;2.63;2.53;;;23.80;90.20;;;;;;5031343;28;20473;-59
2022/05/17 00:03:50;;;;;;;2.70;2.40;;;23.80;90.20;;;;;;5031287;28;20515;-56
2022/05/17 00:06:17;;;;;;;2.60;2.40;;;23.80;90.20;;;;;;5031636;28;20456;-56
2022/05/17 00:08:45;;;;;;;2.67;2.33;;;23.80;90.30;;;;;;5031212;28;20453;-58
2022/05/17 00:11:13;;;;;;;2.67;2.50;;;23.80;90.40;;;;;;5031394;28;20465;-57
2022/05/17 00:13:40;;;;;;;3.10;2.90;;;23.70;90.10;;;;;;5033862;28;20531;-55
2022/05/17 00:16:07;;;;;;;3.33;2.70;;;23.70;90.20;;;;;;5055085;28;20953;-54
2022/05/17 00:18:34;;;;;;;3.07;2.87;;;23.70;90.20;;;;;;5055218;28;20448;-58
2022/05/17 00:21:02;;;;;;;3.10;2.90;;;23.80;90.40;;;;;;5051122;28;20526;-56
2022/05/17 00:23:29;;;;;;;3.00;2.80;;;23.70;90.20;;;;;;5043304;28;20476;-58
2022/05/17 00:25:57;;;;;;;2.30;2.17;;;23.70;90.30;;;;;;5055295;28;20451;-57
2022/05/17 00:28:24;;;;;;;2.70;2.50;;;23.70;90.20;;;;;;5055134;28;20444;-58
2022/05/17 00:30:51;;;;;;;3.43;2.70;;;23.70;90.30;;;;;;5053373;28;22131;-58
2022/05/17 00:33:18;;;;;;;4.13;3.77;;;23.70;90.20;;;;;;5055183;28;20440;-57
2022/05/17 00:35:45;;;;;;;3.33;3.10;;;23.70;90.20;;;;;;5055095;28;20926;-58
2022/05/17 00:38:13;;;;;;;2.93;2.83;;;23.70;90.30;;;;;;5054801;28;20455;-57
2022/05/17 00:40:41;;;;;;;3.30;3.10;;;23.70;90.30;;;;;;5040372;28;20449;-55
2022/05/17 00:43:09;;;;;;;2.30;2.20;;;23.70;90.40;;;;;;5034889;28;20520;-56
2022/05/17 00:45:37;;;;;;;4.20;3.00;;;23.70;90.40;;;;;;5035057;28;20441;-54
2022/05/17 00:48:05;;;;;;;2.80;2.70;;;23.70;90.40;;;;;;5041017;28;20440;-55
2022/05/17 00:50:35;;;;;;;2.70;2.60;;;23.70;90.50;;;;;;5054799;28;20501;-55
2022/05/17 00:53:07;;;;;;;3.60;3.37;;;23.60;90.30;;;;;;5054679;28;20464;-57
2022/05/17 00:55:39;;;;;;;3.10;2.90;;;23.60;90.40;;;;;;5054738;28;20448;-58
2022/05/17 00:58:14;;;;;;;3.37;3.00;;;23.60;90.50;;;;;;5047465;28;20808;-58
2022/05/17 01:00:47;;;;;;;3.40;3.20;;;23.60;90.50;;;;;;5034772;28;20452;-58
2022/05/17 01:03:17;;;;;;;3.77;2.97;;;23.60;90.60;;;;;;5034575;28;20491;-57
2022/05/17 01:05:51;;;;;;;2.90;2.70;;;23.60;90.60;;;;;;5034761;28;20448;-58
2022/05/17 01:08:19;;;;;;;4.50;2.73;;;23.60;90.70;;;;;;5042256;28;20458;-58
2022/05/17 01:10:47;;;;;;;2.90;2.77;;;23.60;90.80;;;;;;5054394;28;20824;-58
2022/05/17 01:15:58;;;;;;;3.37;3.17;;;23.60;90.60;;;;;;5054600;28;20416;-58
2022/05/17 01:18:25;;;;;;;2.83;2.63;;;23.50;90.60;;;;;;5045099;28;20445;-57
2022/05/17 01:20:52;;;;;;;2.30;2.20;;;23.50;90.40;;;;;;5034159;28;20441;-58
2022/05/17 01:23:20;;;;;;;2.80;2.60;;;23.50;90.50;;;;;;5034295;28;20687;-57
2022/05/17 01:25:47;;;;;;;3.83;3.30;;;23.50;90.50;;;;;;5033641;28;20511;-55
2022/05/17 01:28:20;;;;;;;2.77;2.57;;;23.50;90.50;;;;;;5040761;28;20451;-56
2022/05/17 01:30:47;;;;;;;2.17;2.07;;;23.50;90.50;;;;;;5054052;28;20455;-57
2022/05/17 01:33:15;;;;;;;2.60;2.50;;;23.50;90.60;;;;;;5053945;28;20702;-58
2022/05/17 01:35:42;;;;;;;3.57;3.33;;;23.50;90.60;;;;;;5053898;28;20456;-58
2022/05/17 01:38:09;;;;;;;2.60;2.40;;;23.50;90.60;;;;;;5047306;28;20452;-58
2022/05/17 01:40:38;;;;;;;3.10;3.00;;;23.50;90.60;;;;;;5033962;28;20460;-57
2022/05/17 01:43:05;;;;;;;2.77;2.57;;;23.50;90.60;;;;;;5033625;28;20481;-58
2022/05/17 01:45:32;;;;;;;3.00;2.80;;;23.50;90.60;;;;;;5033999;28;20444;-58
2022/05/17 01:47:59;;;;;;;3.00;2.80;;;23.50;90.50;;;;;;5037834;28;20448;-55
2022/05/17 01:50:26;;;;;;;2.97;2.73;;;23.50;90.40;;;;;;5053644;28;20450;-56
2022/05/17 01:52:53;;;;;;;4.90;3.10;;;23.50;90.30;;;;;;5053563;28;20464;-58
2022/05/17 01:55:20;;;;;;;2.50;2.40;;;23.50;90.20;;;;;;5053614;28;20627;-58
2022/05/17 01:57:48;;;;;;;2.90;2.80;;;23.40;90.30;;;;;;5036525;28;20486;-57
2022/05/17 02:00:17;;;;;;;2.57;2.37;;;23.40;90.40;;;;;;5033586;28;20461;-55
2022/05/17 02:02:44;;;;;;;2.93;2.73;;;23.40;90.30;;;;;;5033351;28;20489;-57
2022/05/17 02:05:11;;;;;;;3.20;2.80;;;23.40;90.50;;;;;;5034546;28;20449;-58
2022/05/17 02:07:38;;;;;;;5.40;3.23;;;23.40;90.40;;;;;;5033338;28;20455;-58
2022/05/17 02:10:08;;;;;;;3.17;2.97;;;23.40;90.50;;;;;;5033326;28;20441;-59
2022/05/17 02:12:34;;;;;;;4.70;2.87;;;23.40;90.40;;;;;;5033392;28;20500;-59
2022/05/17 02:15:03;;;;;;;3.13;2.93;;;23.40;90.40;;;;;;5048423;28;20535;-56
2022/05/17 02:17:30;;;;;;;2.80;2.30;;;23.40;90.60;;;;;;5053070;28;20447;-59
2022/05/17 02:19:56;;;;;;;6.53;4.07;;;23.40;90.60;;;;;;5053127;28;20452;-56
2022/05/17 02:22:23;;;;;;;2.90;2.70;;;23.40;90.60;;;;;;5052822;28;20491;-57
2022/05/17 02:24:50;;;;;;;3.40;3.20;;;23.40;90.50;;;;;;5039418;28;20450;-58
2022/05/17 02:27:17;;;;;;;3.97;3.77;;;23.40;90.50;;;;;;5033100;28;20499;-58
2022/05/17 02:29:44;;;;;;;3.37;3.17;;;23.40;90.90;;;;;;5033048;28;20456;-54
2022/05/17 02:32:12;;;;;;;2.90;2.80;;;23.40;90.50;;;;;;5032885;28;20560;-59
2022/05/17 02:34:39;;;;;;;3.00;2.90;;;23.40;90.50;;;;;;5044431;28;20853;-59
2022/05/17 02:37:06;;;;;;;4.40;4.00;;;23.30;90.50;;;;;;5051629;28;20444;-57
2022/05/17 02:39:34;;;;;;;3.93;3.63;;;23.40;90.50;;;;;;5052762;28;20815;-58
2022/05/17 02:42:00;;;;;;;3.47;3.27;;;23.30;90.80;;;;;;5048922;28;20473;-56
2022/05/17 02:44:28;;;;;;;4.13;3.83;;;23.30;90.50;;;;;;5032738;28;20876;-55
2022/05/17 02:46:56;;;;;;;4.23;3.77;;;23.40;90.60;;;;;;5032655;28;20448;-58
2022/05/17 02:49:25;;;;;;;3.60;3.40;;;23.30;90.50;;;;;;5032650;28;20453;-58
2022/05/17 02:51:51;;;;;;;3.13;2.93;;;23.30;90.50;;;;;;5034302;28;20477;-58
2022/05/17 02:54:18;;;;;;;3.17;3.07;;;23.30;90.60;;;;;;5052652;28;20444;-59
2022/05/17 02:56:45;;;;;;;3.47;3.23;;;23.30;90.50;;;;;;5052373;28;20865;-58
2022/05/17 02:59:17;;;;;;;4.03;3.73;;;23.30;90.40;;;;;;5052490;28;20440;-57
2022/05/17 03:01:44;;;;;;;4.43;4.03;;;23.20;91.30;;;;;;5037428;28;20468;-59
2022/05/17 03:04:12;;;;;;;5.23;3.93;;;23.10;91.30;;;;;;5032289;28;20485;-57
2022/05/17 03:06:40;;;;;;;4.23;4.00;;;23.00;91.30;;;;;;5032380;28;20452;-58
2022/05/17 03:09:08;;;;;;;4.30;4.00;;;23.00;91.40;;;;;;5032127;28;20949;-54
2022/05/17 03:11:35;;;;;;;4.57;4.17;;;23.00;91.50;;;;;;5045024;28;20472;-59
2022/05/17 03:14:01;;;;;;;5.03;4.53;;;22.90;91.50;;;;;;5052103;28;20452;-58
2022/05/17 03:16:30;;;;;;;5.00;4.60;;;22.80;91.70;;;;;;5052077;28;20440;-59
2022/05/17 03:18:57;;;;;;;4.87;4.50;;;22.80;92.00;;;;;;5051869;28;20454;-59
2022/05/17 03:21:24;;;;;;;4.67;4.10;;;22.80;92.00;;;;;;5040053;28;20480;-59
2022/05/17 03:23:52;;;;;;;4.20;3.90;;;22.70;92.00;;;;;;5032032;28;20492;-58
2022/05/17 03:26:19;;;;;;;6.57;4.17;;;22.70;92.00;;;;;;5031921;28;20821;-58
2022/05/17 03:28:46;;;;;;;5.40;5.00;;;22.70;92.10;;;;;;5031674;28;20445;-58
2022/05/17 03:31:13;;;;;;;4.10;3.80;;;22.70;92.20;;;;;;5041147;28;20460;-57
2022/05/17 03:33:41;;;;;;;4.73;4.50;;;22.60;92.10;;;;;;5051845;28;20493;-58
2022/05/17 03:36:08;;;;;;;6.17;4.90;;;22.60;92.20;;;;;;5051778;28;20954;-58
2022/05/17 03:38:35;;;;;;;5.30;4.90;;;22.60;92.00;;;;;;5051560;28;20441;-58
2022/05/17 03:41:04;;;;;;;5.43;4.90;;;22.70;91.90;;;;;;5043609;28;20461;-58
2022/05/17 03:43:31;;;;;;;4.53;4.20;;;22.70;92.00;;;;;;5031702;28;20481;-57
2022/05/17 03:45:59;;;;;;;4.47;4.17;;;22.80;91.70;;;;;;5031736;28;20445;-57
2022/05/17 03:48:27;;;;;;;4.40;4.10;;;22.80;91.70;;;;;;5031079;28;20445;-57
2022/05/17 03:50:55;;;;;;;4.70;4.40;;;22.80;91.70;;;;;;5032609;28;20455;-59
2022/05/17 03:53:22;;;;;;;4.10;3.80;;;22.80;91.60;;;;;;5031557;28;20441;-58
2022/05/17 03:55:48;;;;;;;3.53;3.37;;;22.80;91.50;;;;;;5031635;28;20441;-58
2022/05/17 03:58:17;;;;;;;4.20;3.90;;;22.90;91.50;;;;;;5031361;28;20445;-58
2022/05/17 04:00:43;;;;;;;3.63;3.40;;;22.90;91.40;;;;;;5035353;28;20444;-59
2022/05/17 04:03:10;;;;;;;7.80;5.57;;;22.90;91.20;;;;;;5051320;28;20495;-58
2022/05/17 04:05:37;;;;;;;10.67;5.93;;;23.00;91.50;;;;;;5051450;28;20452;-57
2022/05/17 04:08:04;;;;;;;8.33;5.40;;;23.00;92.70;;;;;;5051295;28;20451;-58
2022/05/17 04:10:33;;;;;;;6.37;5.77;;;23.00;96.20;;;;;;5065577;28;20526;-58
2022/05/17 04:12:59;;;;;;;12.93;7.07;;;22.90;99.90;;;;;;5054465;28;20463;-53
2022/05/17 04:15:28;;;;;;;15.60;5.87;;;22.90;99.90;;;;;;5057223;28;20477;-52
2022/05/17 04:17:55;;;;;;;9.77;5.47;;;22.90;99.90;;;;;;5068746;28;20447;-50
2022/05/17 04:20:23;;;;;;;8.07;5.97;;;22.90;99.90;;;;;;5071224;28;20443;-52
2022/05/17 04:22:52;;;;;;;5.97;5.03;;;23.00;99.90;;;;;;5071497;28;20529;-54
2022/05/17 04:25:20;;;;;;;6.70;5.57;;;23.00;99.90;;;;;;5071119;28;20452;-54
2022/05/17 04:27:47;;;;;;;8.53;5.43;;;23.00;99.70;;;;;;5071021;28;20455;-54
2022/05/17 04:30:14;;;;;;;5.63;5.03;;;23.00;98.70;;;;;;5071184;28;20443;-53
2022/05/17 04:32:43;;;;;;;6.77;4.20;;;23.00;98.60;;;;;;5071058;28;20463;-52
2022/05/17 04:35:11;;;;;;;5.70;5.07;;;23.00;98.00;;;;;;5071132;28;20443;-55
2022/05/17 04:37:38;;;;;;;4.53;4.20;;;23.00;97.80;;;;;;5070956;28;20439;-52
2022/05/17 04:40:08;;;;;;;5.27;4.77;;;23.00;97.60;;;;;;5071059;28;20446;-53
2022/05/17 04:42:35;;;;;;;8.57;5.23;;;23.00;97.20;;;;;;5071008;28;20474;-55
2022/05/17 04:45:03;;;;;;;6.30;4.57;;;23.00;96.90;;;;;;5070979;28;20475;-56
2022/05/17 04:47:30;;;;;;;5.20;4.70;;;23.10;96.20;;;;;;5070874;28;20451;-55
2022/05/17 04:49:59;;;;;;;5.40;4.90;;;23.00;96.10;;;;;;5070985;28;20458;-54
2022/05/17 04:52:26;;;;;;;4.53;4.13;;;23.00;95.90;;;;;;5070833;28;20471;-54
2022/05/17 04:54:53;;;;;;;5.40;5.00;;;23.00;95.00;;;;;;5070870;28;20961;-54
2022/05/17 04:57:20;;;;;;;5.20;4.80;;;23.00;94.90;;;;;;5070763;28;20440;-56
2022/05/17 04:59:47;;;;;;;5.37;4.90;;;23.00;94.60;;;;;;5071901;28;20964;-53
2022/05/17 05:02:13;;;;;;;4.30;4.00;;;23.00;94.90;;;;;;5074368;28;20470;-52
2022/05/17 05:04:40;;;;;;;5.47;3.70;;;23.00;94.70;;;;;;5074504;28;20838;-53
2022/05/17 05:07:08;;;;;;;5.73;5.20;;;23.00;94.30;;;;;;5074463;28;20516;-56
2022/05/17 05:09:35;;;;;;;4.83;4.23;;;23.00;94.50;;;;;;5074216;28;20450;-53
2022/05/17 05:12:03;;;;;;;4.53;4.13;;;23.00;94.00;;;;;;5074394;28;20467;-53
2022/05/17 05:14:30;;;;;;;4.77;4.47;;;23.00;93.80;;;;;;5074315;28;20962;-51
2022/05/17 05:16:58;;;;;;;5.00;4.50;;;23.00;94.00;;;;;;5074148;28;20455;-53
2022/05/17 05:19:24;;;;;;;4.43;3.67;;;23.00;93.50;;;;;;5074110;28;20807;-56
2022/05/17 05:21:51;;;;;;;4.10;3.90;;;23.00;93.20;;;;;;5074057;28;20497;-54
2022/05/17 05:24:19;;;;;;;3.93;3.47;;;23.00;93.20;;;;;;5074022;28;20486;-51
2022/05/17 05:26:46;;;;;;;3.63;3.43;;;23.00;93.10;;;;;;5073893;28;20458;-52
2022/05/17 05:29:13;;;;;;;3.90;3.70;;;23.00;92.90;;;;;;5074103;28;20474;-53
2022/05/17 05:31:39;;;;;;;5.90;4.63;;;23.00;92.70;;;;;;5073965;28;20982;-51
2022/05/17 05:34:06;;;;;;;3.80;3.57;;;23.00;93.10;;;;;;5074124;28;20442;-56
2022/05/17 05:36:33;;;;;;;3.23;3.00;;;23.00;92.80;;;;;;5074007;28;20447;-53
2022/05/17 05:39:00;;;;;;;4.40;3.80;;;23.00;92.50;;;;;;5073776;28;20573;-55
2022/05/17 05:41:28;;;;;;;3.83;3.57;;;23.00;92.70;;;;;;5073675;28;20463;-55
2022/05/17 05:43:54;;;;;;;4.13;3.93;;;23.00;92.50;;;;;;5073822;28;20483;-55
2022/05/17 05:46:21;;;;;;;4.07;3.80;;;23.00;92.20;;;;;;5073751;28;20444;-51
2022/05/17 05:48:48;;;;;;;3.90;3.60;;;23.00;92.00;;;;;;5073608;28;20789;-54
2022/05/17 05:51:15;;;;;;;4.50;4.10;;;23.00;92.10;;;;;;5073610;28;20466;-52
2022/05/17 05:53:42;;;;;;;4.20;3.83;;;23.00;91.90;;;;;;5073677;28;20766;-58
2022/05/17 05:56:08;;;;;;;3.90;3.60;;;23.00;91.80;;;;;;5073643;28;20449;-57
2022/05/17 05:58:39;;;;;;;4.43;4.13;;;23.00;91.80;;;;;;5073319;28;20946;-55
2022/05/17 06:01:06;;;;;;;3.30;3.10;;;23.00;91.80;;;;;;5073551;28;20443;-54
2022/05/17 06:03:34;;;;;;;4.10;3.50;;;23.00;91.70;;;;;;5073519;28;20498;-52
2022/05/17 06:06:01;;;;;;;3.70;3.50;;;23.00;91.50;;;;;;5073508;28;20452;-55
2022/05/17 06:08:28;;;;;;;3.33;3.10;;;23.00;91.60;;;;;;5073182;28;20446;-53
2022/05/17 06:10:56;;;;;;;4.03;3.73;;;23.00;91.40;;;;;;5073027;28;20447;-54
2022/05/17 06:13:23;;;;;;;4.17;3.70;;;23.00;91.30;;;;;;5073359;28;20542;-53
2022/05/17 06:15:52;;;;;;;3.60;3.30;;;23.00;91.20;;;;;;5073273;28;20440;-51
2022/05/17 06:18:19;;;;;;;3.40;3.20;;;23.00;91.00;;;;;;5072988;28;20451;-55
2022/05/17 06:20:50;;;;;;;3.33;3.13;;;23.00;90.90;;;;;;5073041;28;20447;-57
2022/05/17 06:23:18;;;;;;;3.97;3.43;;;23.00;90.80;;;;;;5073133;28;20438;-54
2022/05/17 06:25:45;;;;;;;3.80;3.40;;;23.00;91.00;;;;;;5073042;28;20475;-55
2022/05/17 06:28:12;;;;;;;4.13;3.80;;;23.00;90.80;;;;;;5072909;28;20934;-55
2022/05/17 06:30:41;;;;;;;3.60;3.33;;;23.00;91.20;;;;;;5072943;28;20446;-54
2022/05/17 06:33:10;;;;;;;4.03;3.73;;;23.00;91.00;;;;;;5072931;28;20540;-52
2022/05/17 06:35:37;;;;;;;3.90;3.53;;;23.00;90.80;;;;;;5072774;28;20450;-54
2022/05/17 06:38:04;;;;;;;3.97;3.70;;;23.00;90.70;;;;;;5072700;28;20458;-53
2022/05/17 06:40:31;;;;;;;3.70;3.40;;;23.00;90.80;;;;;;5072798;28;20488;-52
2022/05/17 06:42:59;;;;;;;3.93;3.73;;;23.00;91.00;;;;;;5072612;28;21009;-52
2022/05/17 06:45:26;;;;;;;4.50;4.03;;;23.00;90.70;;;;;;5072605;28;20483;-55
2022/05/17 06:47:53;;;;;;;3.10;2.90;;;23.00;91.00;;;;;;5072350;28;20447;-55
2022/05/17 06:50:21;;;;;;;3.90;3.10;;;23.00;90.60;;;;;;5072332;28;20969;-53
2022/05/17 06:52:48;;;;;;;3.73;3.53;;;23.00;90.90;;;;;;5072274;28;20474;-56
2022/05/17 06:55:15;;;;;;;3.40;3.20;;;23.00;90.70;;;;;;5072547;28;20444;-51
2022/05/17 06:57:43;;;;;;;3.70;3.50;;;23.00;91.10;;;;;;5072144;28;20452;-55
2022/05/17 07:00:12;;;;;;;3.37;3.17;;;23.00;90.70;;;;;;5072444;28;20818;-52
2022/05/17 07:02:39;;;;;;;3.70;3.50;;;23.00;91.00;;;;;;5072340;28;20467;-54
2022/05/17 07:05:08;;;;;;;3.70;3.50;;;23.00;90.40;;;;;;5072122;28;20490;-57
2022/05/17 07:07:37;;;;;;;3.70;3.40;;;23.10;90.80;;;;;;5072068;28;20447;-57
2022/05/17 07:15:33;;;;;;;3.93;3.57;;;23.00;90.60;;;;;;5072374;28;20469;-51
2022/05/17 07:18:00;;;;;;;3.03;2.83;;;23.00;90.50;;;;;;5071862;28;20809;-52
2022/05/17 07:20:27;;;;;;;3.40;3.27;;;23.10;91.00;;;;;;5071842;28;20808;-53
2022/05/17 07:22:55;;;;;;;3.10;2.90;;;23.00;90.40;;;;;;5071296;28;20475;-54
2022/05/17 07:25:22;;;;;;;3.40;3.20;;;23.10;90.10;;;;;;5071849;28;20487;-51
2022/05/17 07:27:49;;;;;;;3.80;3.60;;;23.00;90.20;;;;;;5071648;28;20522;-53
2022/05/17 07:30:16;;;;;;;3.97;3.67;;;23.10;90.20;;;;;;5072023;28;20504;-51
2022/05/17 07:32:43;;;;;;;4.30;3.90;;;23.10;90.30;;;;;;5071654;28;20462;-54
2022/05/17 07:35:10;;;;;;;2.87;2.67;;;23.10;90.20;;;;;;5071808;28;20439;-51
2022/05/17 07:37:37;;;;;;;3.67;3.17;;;23.10;90.20;;;;;;5071642;28;20459;-53
2022/05/17 07:40:07;;;;;;;3.30;3.00;;;23.10;90.20;;;;;;5071673;28;20958;-55
2022/05/17 07:42:33;;;;;;;3.30;3.10;;;23.10;90.10;;;;;;5071648;28;20467;-53
2022/05/17 07:45:00;;;;;;;3.70;3.40;;;23.10;90.10;;;;;;5071667;28;20494;-53
2022/05/17 07:47:29;;;;;;;2.97;2.87;;;23.10;89.60;;;;;;5071541;28;20930;-55
2022/05/17 07:49:56;;;;;;;3.70;3.00;;;23.10;90.10;;;;;;5071637;28;20447;-52
2022/05/17 07:52:23;;;;;;;3.93;2.43;;;23.10;90.10;;;;;;5071542;28;20474;-54
2022/05/17 07:54:49;;;;;;;5.00;3.10;;;23.10;89.90;;;;;;5071627;28;20443;-55
2022/05/17 07:57:19;;;;;;;2.90;2.70;;;23.10;90.50;;;;;;5071473;28;20443;-52
2022/05/17 07:59:46;;;;;;;3.30;3.10;;;23.10;90.00;;;;;;5071431;28;20508;-55
2022/05/17 08:02:13;;;;;;;5.27;2.97;;;23.10;90.10;;;;;;5071297;28;20467;-55
2022/05/17 08:04:40;;;;;;;3.13;2.93;;;23.10;90.10;;;;;;5071322;28;21021;-53
2022/05/17 08:07:08;;;;;;;3.97;3.17;;;23.10;90.10;;;;;;5071415;28;20451;-53
2022/05/17 08:09:35;;;;;;;3.10;2.90;;;23.10;90.70;;;;;;5071358;28;20463;-56
2022/05/17 08:12:02;;;;;;;2.77;2.57;;;23.10;91.00;;;;;;5071369;28;20513;-54
2022/05/17 08:14:30;;;;;;;3.70;3.50;;;23.10;91.00;;;;;;5071449;28;20919;-53
2022/05/17 08:16:57;;;;;;;3.33;3.13;;;23.10;90.90;;;;;;5071174;28;20446;-52
2022/05/17 08:19:24;;;;;;;3.10;2.90;;;23.10;90.30;;;;;;5071244;28;20524;-55
2022/05/17 08:21:50;;;;;;;3.57;3.27;;;23.10;90.90;;;;;;5071037;28;20475;-57
2022/05/17 08:24:17;;;;;;;3.00;2.90;;;23.10;90.90;;;;;;5071313;28;20483;-54
2022/05/17 08:29:30;;;;;;;3.37;3.17;;;23.20;90.40;;;;;;5071289;28;20415;-54
2022/05/17 08:34:41;;;;;;;3.47;3.17;;;23.20;90.70;;;;;;5073694;28;20410;-53
2022/05/17 08:37:08;;;;;;;2.87;2.77;;;23.20;91.00;;;;;;5074970;28;20447;-56
2022/05/17 08:39:35;;;;;;;3.50;3.30;;;23.20;91.10;;;;;;5074988;28;20546;-53
2022/05/17 08:42:11;;;;;;;3.80;3.50;;;23.20;91.00;;;;;;5074967;28;20490;-56
2022/05/17 08:44:45;;;;;;;2.77;2.60;;;23.20;91.00;;;;;;5074912;28;20486;-53
2022/05/17 08:47:17;;;;;;;3.33;3.03;;;23.20;91.40;;;;;;5074651;28;20450;-56
2022/05/17 08:49:54;;;;;;;2.90;2.70;;;23.20;91.30;;;;;;5074721;28;20443;-51
2022/05/17 08:52:24;;;;;;;2.90;2.70;;;23.20;91.20;;;;;;5074810;28;20473;-54
2022/05/17 08:54:56;;;;;;;3.40;3.17;;;23.20;91.10;;;;;;5075057;28;20435;-56
2022/05/17 08:57:30;;;;;;;3.07;2.87;;;23.20;91.10;;;;;;5074584;28;20455;-57
2022/05/17 09:00:04;;;;;;;3.00;2.80;;;23.20;91.10;;;;;;5074692;28;20458;-56
2022/05/17 09:02:41;;;;;;;2.97;2.77;;;23.20;91.30;;;;;;5074445;28;20471;-56
2022/05/17 09:05:20;;;;;;;3.20;3.00;;;23.20;91.40;;;;;;5074516;28;20486;-56
2022/05/17 09:07:56;;;;;;;3.07;2.87;;;23.20;91.00;;;;;;5074283;28;20454;-57
2022/05/17 09:10:28;;;;;;;2.80;2.60;;;23.20;90.90;;;;;;5074545;28;20439;-57
2022/05/17 09:13:01;;;;;;;4.50;3.07;;;23.20;91.10;;;;;;5074316;28;20463;-57
2022/05/17 09:15:29;;;;;;;3.47;3.20;;;23.20;91.00;;;;;;5074512;28;20793;-57
2022/05/17 09:17:57;;;;;;;3.50;2.73;;;23.30;91.20;;;;;;5074184;28;20479;-56
2022/05/17 09:20:33;;;;;;;3.20;2.90;;;23.30;91.00;;;;;;5074308;28;20448;-54
2022/05/17 09:23:00;;;;;;;2.77;2.63;;;23.30;91.20;;;;;;5074090;28;20505;-53
2022/05/17 09:25:44;;;;;;;2.63;2.53;;;23.30;91.30;;;;;;5073994;28;20474;-55
2022/05/17 09:28:10;;;;;;;2.83;2.60;;;23.30;91.20;;;;;;5073939;28;20450;-56
2022/05/17 09:30:39;;;;;;;2.77;2.57;;;23.30;91.50;;;;;;5069100;28;20444;-53
2022/05/17 09:33:09;;;;;;;2.83;2.40;;;23.30;91.20;;;;;;5053493;28;20497;-58
2022/05/17 09:35:42;;;;;;;3.50;3.20;;;23.30;91.90;;;;;;5073797;28;20438;-57
2022/05/17 09:38:09;;;;;;;3.67;3.20;;;23.40;93.40;;;;;;5072198;28;20194;-54
2022/05/17 09:40:38;;;;;;;5.10;3.77;;;23.40;93.40;;;;;;5074624;28;20444;-52
2022/05/17 09:43:08;;;;;;;3.47;3.17;;;23.40;93.50;;;;;;5074681;28;20490;-54
2022/05/17 09:45:48;;;;;;;3.20;3.00;;;23.50;93.60;;;;;;5073252;28;20482;-52
2022/05/17 09:48:30;;;;;;;4.70;3.30;;;23.40;93.30;;;;;;5073478;28;20817;-54
2022/05/17 09:53:44;;;;;;;3.33;3.10;;;23.40;92.80;;;;;;5073960;28;20423;-53
2022/05/17 09:56:12;;;;;;;3.77;3.00;;;23.40;92.70;;;;;;5073683;28;20444;-51
2022/05/17 09:58:41;;;;;;;3.70;3.00;;;23.40;92.70;;;;;;5073510;28;20958;-51
2022/05/17 10:01:12;;;;;;;3.90;3.40;;;23.40;92.30;;;;;;5073701;28;20541;-48
2022/05/17 10:03:41;;;;;;;2.90;2.70;;;23.40;92.30;;;;;;5073602;28;20957;-50
2022/05/17 10:06:14;;;;;;;2.80;2.60;;;23.40;92.20;;;;;;5073471;28;21009;-49
2022/05/17 10:08:44;;;;;;;4.53;2.83;;;23.40;92.00;;;;;;5073625;28;20939;-49
2022/05/17 10:11:21;;;;;;;3.33;3.03;;;23.40;91.80;;;;;;5073611;28;20443;-50
2022/05/17 10:14:01;;;;;;;2.23;2.13;;;23.40;91.80;;;;;;5073596;28;20869;-48
2022/05/17 10:16:35;;;;;;;3.50;2.90;;;23.40;91.80;;;;;;5073636;28;20437;-55
2022/05/17 10:19:07;;;;;;;2.60;2.50;;;23.50;91.70;;;;;;5073303;28;20447;-54
2022/05/17 10:21:39;;;;;;;2.73;2.53;;;23.50;91.60;;;;;;5099003;22;22109;-53
2022/05/17 10:24:15;;;;;;;2.93;2.73;;;23.40;91.40;;;;;;5084820;28;20435;-55
2022/05/17 10:26:46;;;;;;;2.23;2.13;;;23.40;91.30;;;;;;5093084;28;21075;-54
2022/05/17 10:29:24;;;;;;;2.20;2.10;;;23.40;91.20;;;;;;5093216;28;20534;-51
2022/05/17 10:31:58;;;;;;;2.53;2.43;;;23.50;91.10;;;;;;5093103;28;20461;-50
2022/05/17 10:34:38;;;;;;;4.67;3.30;;;23.40;90.90;;;;;;5093174;28;20924;-51
2022/05/17 10:37:12;;;;;;;2.67;2.53;;;23.50;90.70;;;;;;5092947;28;20493;-51
2022/05/17 10:39:44;;;;;;;2.43;2.33;;;23.50;90.60;;;;;;5093065;28;20454;-52
2022/05/17 10:42:10;;;;;;;3.17;2.90;;;23.50;90.50;;;;;;5092920;28;20836;-52
2022/05/17 10:44:41;;;;;;;4.60;2.40;;;23.50;90.50;;;;;;5092957;28;20454;-50
2022/05/17 10:47:28;;;;;;;2.60;2.40;;;23.50;90.40;;;;;;5092756;28;20427;-52
2022/05/17 10:50:11;;;;;;;2.10;2.00;;;23.50;90.20;;;;;;5092800;28;20438;-51
2022/05/17 10:52:50;;;;;;;2.40;2.20;;;23.50;90.10;;;;;;5092885;28;20817;-52
2022/05/17 10:55:25;;;;;;;2.63;1.70;;;23.50;90.00;;;;;;5092810;28;20434;-52
2022/05/17 10:57:57;;;;;;;2.47;2.30;;;23.50;90.00;;;;;;5091673;28;20495;-55
2022/05/17 11:00:31;;;;;;;2.03;1.93;;;23.50;89.80;;;;;;5092591;28;20441;-53
2022/05/17 11:03:30;;;;;;;2.20;2.10;;;23.50;89.60;;;;;;5092521;28;20462;-51
2022/05/17 11:06:11;;;;;;;2.33;2.23;;;23.50;89.30;;;;;;5092579;28;20478;-52
2022/05/17 11:08:44;;;;;;;2.40;2.30;;;23.50;89.10;;;;;;5092278;28;20434;-52
2022/05/17 11:11:29;;;;;;;2.70;2.50;;;23.50;88.80;;;;;;5092400;28;20446;-51
2022/05/17 11:14:01;;;;;;;2.77;2.20;;;23.50;88.80;;;;;;5092550;28;20468;-51
2022/05/17 11:16:36;;;;;;;1.87;1.77;;;23.50;89.00;;;;;;5092328;28;20941;-51
2022/05/17 11:19:09;;;;;;;2.20;1.90;;;23.50;88.70;;;;;;5092127;28;20460;-52
2022/05/17 11:21:41;;;;;;;2.23;2.13;;;23.60;88.60;;;;;;5092146;28;20968;-52
2022/05/17 11:24:21;;;;;;;2.13;2.03;;;23.50;88.10;;;;;;5092196;28;20482;-53
2022/05/17 11:27:09;;;;;;;2.40;2.20;;;23.60;88.00;;;;;;5091878;28;20482;-52
2022/05/17 11:30:22;;;;;;;2.00;1.90;;;23.60;87.80;;;;;;5092062;28;20439;-51
2022/05/17 11:33:11;;;;;;;2.10;2.00;;;23.60;87.40;;;;;;5044281;28;20478;-50
2022/05/17 11:35:50;;;;;;;2.83;2.63;;;23.60;87.10;;;;;;5092120;28;20496;-51
2022/05/17 11:38:37;;;;;;;2.00;1.40;;;23.60;86.90;;;;;;5091778;28;20454;-54
2022/05/17 11:41:06;;;;;;;2.53;2.00;;;23.60;86.60;;;;;;5091544;28;20446;-51
2022/05/17 11:43:49;;;;;;;1.90;1.80;;;23.60;86.50;;;;;;5091719;28;20474;-54
2022/05/17 11:46:54;;;;;;;1.80;1.70;;;23.60;86.50;;;;;;5091778;28;20482;-53
2022/05/17 11:49:47;;;;;;;1.50;1.40;;;23.60;86.50;;;;;;5091896;28;20446;-51
2022/05/17 11:52:33;;;;;;;1.67;1.57;;;23.60;86.20;;;;;;5091859;28;20600;-51
2022/05/17 11:55:02;;;;;;;2.20;2.03;;;23.60;86.30;;;;;;5091955;28;20457;-52
2022/05/17 11:58:07;;;;;;;2.40;1.70;;;23.60;86.00;;;;;;5091851;28;20870;-53
2022/05/17 12:00:55;;;;;;;1.67;1.57;;;23.60;85.80;;;;;;5091662;28;20529;-51
2022/05/17 12:03:51;;;;;;;1.50;1.40;;;23.60;85.60;;;;;;5085105;28;20851;-51
2022/05/17 12:06:40;;;;;;;2.10;2.00;;;23.60;86.20;;;;;;5091584;28;20874;-51
2022/05/17 12:09:25;;;;;;;1.93;1.83;;;23.60;85.20;;;;;;5091203;28;20478;-51
2022/05/17 12:12:03;;;;;;;1.90;1.80;;;23.60;85.20;;;;;;5091633;28;21054;-51
2022/05/17 12:14:34;;;;;;;1.77;1.67;;;23.60;85.00;;;;;;5091549;28;20442;-50
2022/05/17 12:17:04;;;;;;;1.63;1.60;;;23.60;84.80;;;;;;5091372;28;20443;-50
2022/05/17 12:19:40;;;;;;;1.80;1.70;;;23.60;84.70;;;;;;5091495;28;20442;-51
2022/05/17 12:22:12;;;;;;;1.67;1.57;;;23.70;84.70;;;;;;5091355;28;20825;-50
2022/05/17 12:24:50;;;;;;;1.60;1.50;;;23.70;84.50;;;;;;5091487;28;20446;-53
2022/05/17 12:27:22;;;;;;;1.73;1.63;;;23.70;84.60;;;;;;5091227;28;20485;-50
2022/05/17 12:32:39;;;;;;;1.80;1.70;;;23.70;84.20;;;;;;5091523;28;20442;-50
2022/05/17 12:35:08;;;;;;;2.83;1.57;;;23.70;84.00;;;;;;5091492;28;20513;-52
2022/05/17 12:37:41;;;;;;;3.13;2.27;;;23.70;83.80;;;;;;5091095;28;20812;-53
2022/05/17 12:43:05;;;;;;;1.77;1.67;;;23.70;83.50;;;;;;5091318;28;20433;-52
2022/05/17 12:45:36;;;;;;;1.50;1.40;;;23.70;83.20;;;;;;5091205;28;20454;-51
2022/05/17 12:48:13;;;;;;;1.93;1.80;;;23.70;83.10;;;;;;5091112;28;20503;-53
2022/05/17 12:50:44;;;;;;;1.37;1.30;;;23.70;82.90;;;;;;5091236;28;20854;-50
2022/05/17 12:53:17;;;;;;;1.50;1.40;;;23.80;83.20;;;;;;5091152;28;20470;-50
2022/05/17 12:56:00;;;;;;;1.40;1.40;;;23.80;83.00;;;;;;5091079;28;20669;-51
2022/05/17 12:58:27;;;;;;;1.83;1.50;;;23.80;82.80;;;;;;5090792;28;20529;-50
2022/05/17 13:00:55;;;;;;;1.37;1.20;;;23.80;82.50;;;;;;5091118;28;20925;-51
2022/05/17 13:03:24;;;;;;;1.53;1.43;;;23.80;82.30;;;;;;5090918;28;20972;-50
2022/05/17 13:05:53;;;;;;;3.60;2.10;;;23.80;82.40;;;;;;5090902;28;20884;-50
2022/05/17 13:08:23;;;;;;;1.93;1.73;;;23.80;82.50;;;;;;5090831;28;20442;-54
2022/05/17 13:11:03;;;;;;;1.10;1.00;;;23.80;82.50;;;;;;5091085;28;20442;-53
2022/05/17 13:13:32;;;;;;;1.83;1.47;;;23.80;82.10;;;;;;5090815;28;20458;-51
2022/05/17 13:16:02;;;;;;;1.63;1.53;;;23.80;82.00;;;;;;5091123;28;20445;-50
2022/05/17 13:18:38;;;;;;;1.60;1.50;;;23.80;82.00;;;;;;5090733;28;20438;-50
2022/05/17 13:21:09;;;;;;;1.30;1.30;;;23.80;81.70;;;;;;5092328;28;20533;-51
2022/05/17 13:23:36;;;;;;;1.40;1.30;;;23.80;81.60;;;;;;5094492;28;20454;-51